Time;durP1;ratioP1;P1;durP2;ratioP2;P2;SDS_P1;SDS_P2;PMS_P1;PMS_P2;Temp;Humidity;BMP_temperature;BMP_pressure;BME280_temperature;BME280_humidity;BME280_pressure;Samples;Min_cycle;Max_cycle;Signal;HPM_P1;HPM_P2
2022/12/30 00:00:36;;;;;;;20.03;3.03;;;;;;;;;;5022919;28;20029;-78
2022/12/30 00:03:02;;;;;;;19.73;3.67;;;;;;;;;;5023744;28;20041;-76
2022/12/30 00:05:31;;;;;;;17.33;2.40;;;;;;;;;;5006301;28;20029;-78
2022/12/30 00:07:57;;;;;;;20.43;3.47;;;;;;;;;;5006471;28;20429;-78
2022/12/30 00:10:23;;;;;;;23.40;3.93;;;;;;;;;;5002747;28;20034;-79
2022/12/30 00:34:56;;;;;;;15.77;2.20;;;;;;;;;;5024474;28;20043;-77
2022/12/30 00:37:24;;;;;;;20.97;3.17;;;;;;;;;;5012238;28;20053;-77
2022/12/30 00:39:50;;;;;;;18.73;2.50;;;;;;;;;;5025618;28;20025;-76
2022/12/30 00:45:01;;;;;;;17.23;2.90;;;;;;;;;;5024147;28;20092;-76
2022/12/30 00:47:27;;;;;;;23.37;4.57;;;;;;;;;;5006130;28;20037;-74
2022/12/30 00:58:09;;;;;;;12.70;2.50;;;;;;;;;;5023879;28;20064;-77
2022/12/30 01:00:35;;;;;;;14.23;3.30;;;;;;;;;;5003610;28;20026;-76
2022/12/30 01:03:01;;;;;;;17.93;3.53;;;;;;;;;;5023675;28;20103;-78
2022/12/30 01:05:27;;;;;;;19.17;2.83;;;;;;;;;;5020431;28;20096;-78
2022/12/30 01:07:53;;;;;;;12.90;3.03;;;;;;;;;;5002542;28;20048;-75
2022/12/30 01:10:19;;;;;;;19.80;3.73;;;;;;;;;;5009567;28;20449;-77
2022/12/30 01:12:45;;;;;;;15.67;4.37;;;;;;;;;;5006295;28;20144;-77
2022/12/30 01:15:11;;;;;;;15.63;3.53;;;;;;;;;;5021480;28;20044;-76
2022/12/30 01:17:39;;;;;;;17.10;2.90;;;;;;;;;;5008858;28;20037;-77
2022/12/30 01:20:08;;;;;;;18.67;3.87;;;;;;;;;;5021541;28;20026;-77
2022/12/30 01:22:34;;;;;;;32.33;6.43;;;;;;;;;;5021245;28;20722;-77
2022/12/30 01:25:01;;;;;;;24.20;6.20;;;;;;;;;;5004103;28;20029;-76
2022/12/30 01:27:27;;;;;;;21.27;3.40;;;;;;;;;;5004263;28;20041;-76
2022/12/30 01:29:56;;;;;;;14.23;3.97;;;;;;;;;;5005505;28;20044;-77
2022/12/30 01:32:22;;;;;;;16.43;3.10;;;;;;;;;;5019108;28;20033;-75
2022/12/30 01:34:52;;;;;;;16.93;4.40;;;;;;;;;;5004604;28;20025;-76
2022/12/30 01:37:21;;;;;;;20.73;3.53;;;;;;;;;;5021032;28;20454;-76
2022/12/30 01:39:47;;;;;;;17.57;2.50;;;;;;;;;;5020450;28;20030;-77
2022/12/30 01:42:24;;;;;;;22.70;3.27;;;;;;;;;;5009606;28;20034;-77
2022/12/30 01:44:57;;;;;;;16.97;4.13;;;;;;;;;;5006780;28;20091;-77
2022/12/30 01:47:29;;;;;;;19.58;4.75;;;;;;;;;;5002733;28;20029;-76
2022/12/30 01:49:58;;;;;;;13.88;3.00;;;;;;;;;;5002412;28;20037;-76
2022/12/30 01:52:25;;;;;;;17.83;3.40;;;;;;;;;;5005001;28;20438;-78
2022/12/30 01:54:52;;;;;;;19.00;3.07;;;;;;;;;;5025839;28;20025;-77
2022/12/30 01:57:19;;;;;;;17.70;3.70;;;;;;;;;;5006490;28;20037;-76
2022/12/30 01:59:47;;;;;;;16.57;2.93;;;;;;;;;;5023518;28;20031;-78
2022/12/30 02:02:15;;;;;;;19.93;2.97;;;;;;;;;;5023419;28;20040;-76
2022/12/30 02:04:41;;;;;;;18.37;3.53;;;;;;;;;;5006542;28;20033;-77
2022/12/30 02:07:10;;;;;;;20.23;3.30;;;;;;;;;;5013362;28;20033;-78
2022/12/30 02:09:36;;;;;;;17.77;3.07;;;;;;;;;;5012733;28;20032;-78
2022/12/30 02:12:04;;;;;;;17.80;2.77;;;;;;;;;;5025531;28;20049;-75
2022/12/30 02:14:34;;;;;;;14.57;2.23;;;;;;;;;;5012255;28;20079;-78
2022/12/30 02:17:08;;;;;;;18.57;3.37;;;;;;;;;;5024553;28;20034;-76
2022/12/30 02:19:37;;;;;;;23.47;3.70;;;;;;;;;;5006472;28;20148;-76
2022/12/30 02:22:20;;;;;;;17.37;3.00;;;;;;;;;;5025371;28;20029;-76
2022/12/30 02:24:46;;;;;;;;;;;;;;;;;;5009613;28;20959;-78
2022/12/30 02:27:12;;;;;;;18.53;3.90;;;;;;;;;;5023372;28;19960;-76
2022/12/30 02:29:57;;;;;;;21.10;3.83;;;;;;;;;;5024991;28;20136;-75
2022/12/30 02:32:46;;;;;;;13.17;2.50;;;;;;;;;;5025394;28;20501;-77
2022/12/30 02:35:26;;;;;;;20.67;3.60;;;;;;;;;;5008123;28;20084;-76
2022/12/30 02:37:52;;;;;;;16.13;2.40;;;;;;;;;;5005522;28;20544;-77
2022/12/30 02:44:36;;;;;;;26.17;3.43;;;;;;;;;;5004387;28;20044;-77
2022/12/30 02:46:11;;;;;;;15.83;2.70;;;;;;;;;;5023879;28;20048;-76
2022/12/30 02:48:40;;;;;;;14.70;2.10;;;;;;;;;;5013087;28;20117;-75
2022/12/30 02:53:54;;;;;;;16.53;3.17;;;;;;;;;;5028126;28;20052;-77
2022/12/30 02:56:20;;;;;;;16.07;2.97;;;;;;;;;;5007862;28;20026;-77
2022/12/30 03:04:48;;;;;;;24.53;3.43;;;;;;;;;;5024313;28;20044;-76
2022/12/30 03:07:14;;;;;;;14.43;2.63;;;;;;;;;;5010328;28;20021;-77
2022/12/30 03:11:12;;;;;;;16.83;2.87;;;;;;;;;;5008407;28;20457;-77
2022/12/30 03:12:30;;;;;;;17.50;2.87;;;;;;;;;;5024108;28;20048;-76
2022/12/30 03:15:02;;;;;;;22.73;3.30;;;;;;;;;;5012081;28;20308;-76
2022/12/30 03:17:30;;;;;;;21.43;2.93;;;;;;;;;;5005990;28;20051;-75
2022/12/30 03:19:59;;;;;;;19.83;3.10;;;;;;;;;;5026463;28;20284;-75
2022/12/30 03:27:57;;;;;;;18.33;2.70;;;;;;;;;;5024551;28;20048;-77
2022/12/30 03:30:24;;;;;;;18.47;3.50;;;;;;;;;;5005762;28;20466;-76
2022/12/30 03:32:50;;;;;;;16.83;3.17;;;;;;;;;;5005893;28;20350;-77
2022/12/30 03:35:20;;;;;;;27.47;4.67;;;;;;;;;;5005471;28;20128;-77
2022/12/30 03:37:49;;;;;;;26.60;3.73;;;;;;;;;;5006510;28;20036;-77
2022/12/30 03:40:47;;;;;;;28.97;3.20;;;;;;;;;;5005614;28;20026;-77
2022/12/30 03:43:14;;;;;;;21.93;4.20;;;;;;;;;;4969022;28;20147;-77
2022/12/30 03:45:40;;;;;;;21.70;3.90;;;;;;;;;;5010810;28;20025;-76
2022/12/30 03:48:06;;;;;;;14.40;3.03;;;;;;;;;;5023512;28;20449;-77
2022/12/30 03:50:32;;;;;;;19.20;3.97;;;;;;;;;;5005164;28;20470;-77
2022/12/30 03:53:01;;;;;;;15.87;3.70;;;;;;;;;;5004430;28;20511;-77
2022/12/30 03:55:29;;;;;;;25.30;4.00;;;;;;;;;;5004073;28;20026;-78
2022/12/30 03:57:55;;;;;;;21.00;3.60;;;;;;;;;;5002706;28;20033;-78
2022/12/30 04:00:22;;;;;;;21.73;3.23;;;;;;;;;;5004562;28;20049;-76
2022/12/30 04:02:50;;;;;;;18.40;3.17;;;;;;;;;;5021133;28;20037;-76
2022/12/30 04:05:16;;;;;;;22.83;3.67;;;;;;;;;;5011253;28;20087;-77
2022/12/30 04:07:42;;;;;;;20.33;3.33;;;;;;;;;;5006735;28;20045;-76
2022/12/30 04:10:09;;;;;;;14.77;2.90;;;;;;;;;;5022284;28;20048;-77
2022/12/30 04:12:35;;;;;;;20.53;4.00;;;;;;;;;;5022456;28;20030;-77
2022/12/30 04:15:01;;;;;;;23.77;3.83;;;;;;;;;;5022003;28;20083;-76
2022/12/30 04:17:29;;;;;;;31.63;5.03;;;;;;;;;;5005085;28;20575;-77
2022/12/30 04:19:58;;;;;;;22.53;4.30;;;;;;;;;;5023660;28;20025;-77
2022/12/30 04:22:28;;;;;;;22.23;3.33;;;;;;;;;;5010605;28;20083;-76
2022/12/30 04:24:54;;;;;;;24.47;4.27;;;;;;;;;;5003639;28;20306;-77
2022/12/30 04:27:20;;;;;;;18.37;3.57;;;;;;;;;;5005266;28;20276;-74
2022/12/30 04:29:46;;;;;;;21.83;3.80;;;;;;;;;;5010858;28;20292;-77
2022/12/30 04:32:12;;;;;;;30.80;5.50;;;;;;;;;;5022382;28;20288;-76
2022/12/30 04:34:38;;;;;;;18.87;3.93;;;;;;;;;;5003407;28;20052;-76
2022/12/30 04:37:04;;;;;;;17.73;2.83;;;;;;;;;;5004506;28;20798;-77
2022/12/30 04:39:30;;;;;;;18.13;3.40;;;;;;;;;;5005028;28;20277;-78
2022/12/30 04:41:56;;;;;;;17.00;3.20;;;;;;;;;;5011030;28;20033;-77
2022/12/30 04:44:22;;;;;;;24.87;3.27;;;;;;;;;;5024792;28;20048;-77
2022/12/30 04:46:48;;;;;;;19.50;4.30;;;;;;;;;;5024076;28;20029;-76
2022/12/30 04:49:14;;;;;;;22.97;2.97;;;;;;;;;;5003872;28;20036;-75
2022/12/30 04:51:40;;;;;;;22.43;2.90;;;;;;;;;;5002529;28;20117;-77
2022/12/30 04:54:06;;;;;;;22.43;3.20;;;;;;;;;;5004444;28;20368;-76
2022/12/30 04:56:32;;;;;;;28.70;4.87;;;;;;;;;;5002791;28;20332;-77
2022/12/30 04:58:58;;;;;;;21.10;4.23;;;;;;;;;;5003545;28;20353;-78
2022/12/30 05:01:24;;;;;;;19.90;3.50;;;;;;;;;;5005113;28;20056;-76
2022/12/30 05:03:50;;;;;;;18.57;3.57;;;;;;;;;;5010291;28;20036;-76
2022/12/30 05:06:17;;;;;;;19.90;3.50;;;;;;;;;;5006669;28;20100;-77
2022/12/30 05:08:43;;;;;;;23.73;3.43;;;;;;;;;;5004706;28;20048;-75
2022/12/30 05:11:09;;;;;;;19.80;3.70;;;;;;;;;;5024245;28;20284;-77
2022/12/30 05:13:35;;;;;;;25.63;3.67;;;;;;;;;;5025024;28;20288;-77
2022/12/30 05:16:01;;;;;;;14.03;3.10;;;;;;;;;;5004444;28;20120;-77
2022/12/30 05:18:27;;;;;;;18.30;4.00;;;;;;;;;;5023771;28;20029;-76
2022/12/30 05:20:56;;;;;;;16.80;3.20;;;;;;;;;;5007177;28;20029;-78
2022/12/30 05:26:14;;;;;;;14.37;3.47;;;;;;;;;;5022085;28;20053;-77
2022/12/30 05:28:40;;;;;;;25.23;3.17;;;;;;;;;;5024128;28;20725;-76
2022/12/30 05:31:06;;;;;;;20.87;3.80;;;;;;;;;;5009880;28;20284;-78
2022/12/30 05:33:32;;;;;;;27.60;4.90;;;;;;;;;;5021629;28;20292;-75
2022/12/30 05:35:58;;;;;;;16.30;3.57;;;;;;;;;;5023965;28;20439;-76
2022/12/30 05:38:27;;;;;;;19.63;3.80;;;;;;;;;;5007896;28;20029;-76
2022/12/30 05:40:53;;;;;;;21.93;5.17;;;;;;;;;;5006212;28;20025;-76
2022/12/30 05:43:21;;;;;;;27.23;4.00;;;;;;;;;;5024648;28;20692;-76
2022/12/30 05:45:47;;;;;;;12.83;2.47;;;;;;;;;;5025485;28;20121;-77
2022/12/30 05:48:13;;;;;;;18.20;3.43;;;;;;;;;;5007703;28;20037;-77
2022/12/30 05:50:40;;;;;;;15.53;2.70;;;;;;;;;;5007079;28;20025;-78
2022/12/30 05:53:06;;;;;;;18.90;4.00;;;;;;;;;;5004695;28;20200;-76
2022/12/30 05:55:32;;;;;;;23.37;3.47;;;;;;;;;;5004159;28;20133;-76
2022/12/30 05:57:58;;;;;;;22.00;3.23;;;;;;;;;;5003896;28;20041;-78
2022/12/30 06:00:26;;;;;;;12.37;2.13;;;;;;;;;;5008200;28;20029;-77
2022/12/30 06:02:52;;;;;;;17.07;2.93;;;;;;;;;;5007449;28;20551;-77
2022/12/30 06:05:18;;;;;;;20.33;3.43;;;;;;;;;;5011243;28;20445;-75
2022/12/30 06:07:44;;;;;;;32.40;3.40;;;;;;;;;;5009794;28;20037;-78
2022/12/30 06:10:11;;;;;;;10.83;2.50;;;;;;;;;;5019445;28;20045;-77
2022/12/30 06:12:37;;;;;;;17.47;3.27;;;;;;;;;;5002181;28;20049;-77
2022/12/30 06:15:05;;;;;;;20.43;3.10;;;;;;;;;;5003026;28;20037;-76
2022/12/30 06:17:31;;;;;;;16.83;2.80;;;;;;;;;;5001914;28;20029;-77
2022/12/30 06:19:57;;;;;;;14.67;3.40;;;;;;;;;;5001256;28;20049;-77
2022/12/30 06:22:23;;;;;;;21.40;3.03;;;;;;;;;;5008733;28;20095;-77
2022/12/30 06:24:49;;;;;;;16.70;3.13;;;;;;;;;;5021574;28;20029;-77
2022/12/30 06:27:15;;;;;;;16.57;2.87;;;;;;;;;;5002513;28;20045;-77
2022/12/30 06:29:41;;;;;;;23.50;3.43;;;;;;;;;;5001472;28;20033;-77
2022/12/30 06:32:07;;;;;;;16.07;3.37;;;;;;;;;;5002631;28;20361;-76
2022/12/30 06:34:36;;;;;;;16.53;3.37;;;;;;;;;;5005667;28;20128;-76
2022/12/30 06:37:02;;;;;;;20.30;2.97;;;;;;;;;;5001526;28;20037;-78
2022/12/30 06:39:28;;;;;;;10.53;2.57;;;;;;;;;;5024402;28;20022;-77
2022/12/30 06:41:54;;;;;;;16.93;3.30;;;;;;;;;;5006528;28;20045;-78
2022/12/30 06:44:20;;;;;;;16.43;2.50;;;;;;;;;;5008293;28;20033;-77
2022/12/30 06:46:48;;;;;;;15.43;3.63;;;;;;;;;;5026032;28;20327;-77
2022/12/30 06:49:14;;;;;;;12.43;2.50;;;;;;;;;;5005264;28;20036;-77
2022/12/30 06:51:40;;;;;;;27.23;3.00;;;;;;;;;;5005238;28;20095;-76
2022/12/30 06:54:06;;;;;;;20.50;3.80;;;;;;;;;;5008418;28;20076;-77
2022/12/30 06:56:35;;;;;;;17.20;3.13;;;;;;;;;;5026638;28;20021;-77
2022/12/30 06:59:01;;;;;;;18.67;3.10;;;;;;;;;;5012587;28;20087;-75
2022/12/30 07:01:27;;;;;;;15.30;2.30;;;;;;;;;;5008529;28;20030;-76
2022/12/30 07:03:53;;;;;;;11.40;2.67;;;;;;;;;;5011778;28;20048;-76
2022/12/30 07:06:19;;;;;;;21.73;3.30;;;;;;;;;;5005740;28;20025;-77
2022/12/30 07:08:45;;;;;;;10.30;2.33;;;;;;;;;;5025684;28;20101;-75
2022/12/30 07:11:11;;;;;;;14.90;2.77;;;;;;;;;;5005224;28;20041;-75
2022/12/30 07:13:37;;;;;;;13.87;2.80;;;;;;;;;;5004743;28;20122;-78
2022/12/30 07:16:03;;;;;;;17.93;2.73;;;;;;;;;;5022554;28;20037;-77
2022/12/30 07:18:29;;;;;;;16.27;3.07;;;;;;;;;;5023920;28;20053;-77
2022/12/30 07:20:55;;;;;;;14.03;2.20;;;;;;;;;;5006685;28;20784;-76
2022/12/30 07:23:22;;;;;;;14.63;3.53;;;;;;;;;;5005230;28;20339;-76
2022/12/30 07:25:48;;;;;;;11.40;2.77;;;;;;;;;;5011421;28;20061;-77
2022/12/30 07:28:14;;;;;;;13.33;2.67;;;;;;;;;;5005494;28;20033;-78
2022/12/30 07:30:40;;;;;;;18.67;3.40;;;;;;;;;;5024705;28;20040;-75
2022/12/30 07:33:06;;;;;;;17.83;3.00;;;;;;;;;;5004615;28;20029;-77
2022/12/30 07:35:33;;;;;;;9.30;2.23;;;;;;;;;;5006960;28;20026;-78
2022/12/30 07:37:59;;;;;;;9.63;2.43;;;;;;;;;;5022127;28;20029;-77
2022/12/30 07:40:25;;;;;;;15.23;3.30;;;;;;;;;;5006662;28;20021;-76
2022/12/30 07:42:51;;;;;;;11.87;2.47;;;;;;;;;;5024049;28;20038;-76
2022/12/30 07:45:19;;;;;;;15.53;2.80;;;;;;;;;;5024733;28;20453;-77
2022/12/30 07:47:45;;;;;;;9.07;2.03;;;;;;;;;;5023057;28;20462;-78
2022/12/30 07:50:14;;;;;;;13.63;2.97;;;;;;;;;;5020626;28;20106;-78
2022/12/30 07:52:40;;;;;;;17.53;2.87;;;;;;;;;;5005568;28;20045;-77
2022/12/30 07:55:07;;;;;;;11.10;3.37;;;;;;;;;;5006711;28;20022;-77
2022/12/30 07:57:33;;;;;;;17.23;2.60;;;;;;;;;;5006383;28;20026;-76
2022/12/30 08:00:01;;;;;;;13.57;3.27;;;;;;;;;;5004409;28;20045;-76
2022/12/30 08:02:27;;;;;;;9.87;3.00;;;;;;;;;;5005455;28;20583;-78
2022/12/30 08:04:53;;;;;;;19.33;2.50;;;;;;;;;;5005425;28;20110;-76
2022/12/30 08:07:19;;;;;;;14.87;3.13;;;;;;;;;;5024072;28;20033;-76
2022/12/30 08:09:45;;;;;;;11.63;2.30;;;;;;;;;;5023239;28;20041;-76
2022/12/30 08:12:11;;;;;;;8.37;2.43;;;;;;;;;;5026351;28;20057;-76
2022/12/30 08:14:37;;;;;;;13.10;3.00;;;;;;;;;;5022028;28;20042;-77
2022/12/30 08:17:03;;;;;;;13.37;2.27;;;;;;;;;;5016601;28;20041;-76
2022/12/30 08:19:30;;;;;;;14.50;3.10;;;;;;;;;;5031830;28;20017;-76
2022/12/30 08:21:56;;;;;;;9.90;2.40;;;;;;;;;;5024346;28;20030;-77
2022/12/30 08:24:22;;;;;;;11.13;2.40;;;;;;;;;;5005912;28;20038;-76
2022/12/30 08:26:48;;;;;;;11.00;2.00;;;;;;;;;;5010782;28;20034;-76
2022/12/30 08:29:15;;;;;;;14.47;2.33;;;;;;;;;;5003752;28;20589;-77
2022/12/30 08:31:42;;;;;;;8.90;2.10;;;;;;;;;;5028283;28;21015;-77
2022/12/30 08:34:08;;;;;;;7.90;1.70;;;;;;;;;;5026853;28;20136;-78
2022/12/30 08:36:34;;;;;;;12.77;2.43;;;;;;;;;;5010475;28;20425;-79
2022/12/30 08:39:03;;;;;;;5.30;1.57;;;;;;;;;;5003533;28;20057;-75
2022/12/30 08:41:31;;;;;;;11.90;1.73;;;;;;;;;;5006457;28;20032;-75
2022/12/30 08:43:58;;;;;;;8.77;1.90;;;;;;;;;;5009349;28;20030;-75
2022/12/30 08:46:24;;;;;;;8.53;1.23;;;;;;;;;;5026452;28;20489;-77
2022/12/30 08:48:51;;;;;;;10.53;1.63;;;;;;;;;;5020946;28;20107;-78
2022/12/30 08:51:17;;;;;;;7.07;2.33;;;;;;;;;;5011664;28;20094;-78
2022/12/30 08:53:45;;;;;;;5.77;1.57;;;;;;;;;;5006761;28;20188;-76
2022/12/30 08:56:11;;;;;;;5.83;1.73;;;;;;;;;;5024460;28;20057;-77
2022/12/30 08:58:37;;;;;;;7.60;1.47;;;;;;;;;;5023113;28;20029;-77
2022/12/30 09:01:11;;;;;;;11.27;2.20;;;;;;;;;;5024606;28;20038;-76
2022/12/30 09:03:41;;;;;;;7.93;1.73;;;;;;;;;;5009550;28;20417;-76
2022/12/30 09:06:08;;;;;;;9.37;2.67;;;;;;;;;;5023058;28;20044;-77
2022/12/30 09:08:34;;;;;;;9.17;2.30;;;;;;;;;;5026354;28;20037;-76
2022/12/30 09:11:01;;;;;;;7.77;1.73;;;;;;;;;;5028015;28;20029;-77
2022/12/30 09:13:28;;;;;;;11.67;1.67;;;;;;;;;;5002277;28;20337;-76
2022/12/30 09:15:54;;;;;;;7.53;1.70;;;;;;;;;;5021838;28;20057;-78
2022/12/30 09:18:20;;;;;;;5.57;1.67;;;;;;;;;;5002683;28;20141;-75
2022/12/30 09:20:46;;;;;;;13.60;2.63;;;;;;;;;;5003216;28;20124;-76
2022/12/30 09:23:12;;;;;;;12.10;3.67;;;;;;;;;;5017933;28;20044;-77
2022/12/30 09:25:38;;;;;;;6.53;1.80;;;;;;;;;;5021797;28;20458;-77
2022/12/30 09:28:04;;;;;;;13.17;3.90;;;;;;;;;;5021936;28;20068;-78
2022/12/30 09:30:31;;;;;;;13.23;2.40;;;;;;;;;;5003682;28;20037;-78
2022/12/30 09:32:57;;;;;;;11.53;2.37;;;;;;;;;;5002763;28;20095;-76
2022/12/30 09:35:23;;;;;;;12.20;2.37;;;;;;;;;;5003829;28;20029;-76
2022/12/30 09:37:49;;;;;;;7.47;2.13;;;;;;;;;;5021854;28;20034;-78
2022/12/30 09:40:17;;;;;;;10.37;2.40;;;;;;;;;;5021839;28;20354;-78
2022/12/30 09:45:50;;;;;;;8.83;1.87;;;;;;;;;;5020508;28;20040;-78
2022/12/30 09:48:20;;;;;;;8.90;2.23;;;;;;;;;;5002448;28;20116;-78
2022/12/30 09:50:49;;;;;;;8.57;1.93;;;;;;;;;;5020379;28;20037;-78
2022/12/30 09:53:25;;;;;;;11.53;2.03;;;;;;;;;;5000789;28;20836;-77
2022/12/30 09:55:52;;;;;;;7.07;1.50;;;;;;;;;;5008567;28;20033;-77
2022/12/30 09:58:27;;;;;;;9.40;2.13;;;;;;;;;;4999025;28;20029;-77
2022/12/30 10:00:56;;;;;;;13.90;2.53;;;;;;;;;;5021945;28;20148;-77
2022/12/30 10:03:27;;;;;;;11.43;3.20;;;;;;;;;;5020545;28;20030;-78
2022/12/30 10:06:02;;;;;;;11.37;1.70;;;;;;;;;;5004654;28;20034;-77
2022/12/30 10:08:49;;;;;;;10.20;1.50;;;;;;;;;;5021533;28;20052;-78
2022/12/30 10:11:26;;;;;;;9.17;1.93;;;;;;;;;;5019396;28;20041;-78
2022/12/30 10:13:55;;;;;;;12.50;2.10;;;;;;;;;;5025815;28;20043;-76
2022/12/30 10:16:30;;;;;;;8.53;2.60;;;;;;;;;;5025491;28;20628;-78
2022/12/30 10:18:58;;;;;;;8.10;1.63;;;;;;;;;;5025562;28;20030;-77
2022/12/30 10:21:28;;;;;;;6.03;1.53;;;;;;;;;;5026015;28;20045;-77
2022/12/30 10:24:06;;;;;;;9.63;1.80;;;;;;;;;;5024699;28;20039;-77
2022/12/30 10:26:43;;;;;;;9.30;1.97;;;;;;;;;;5011760;28;20034;-76
2022/12/30 10:29:13;;;;;;;10.97;1.77;;;;;;;;;;5006682;28;20040;-77
2022/12/30 10:31:39;;;;;;;8.23;2.20;;;;;;;;;;5023529;28;20048;-78
2022/12/30 10:34:13;;;;;;;5.83;2.03;;;;;;;;;;5006245;28;20080;-77
2022/12/30 10:36:39;;;;;;;10.57;1.73;;;;;;;;;;5007999;28;20093;-77
2022/12/30 10:39:13;;;;;;;4.63;1.33;;;;;;;;;;5004475;28;20029;-78
2022/12/30 10:41:46;;;;;;;7.20;1.60;;;;;;;;;;5006037;28;20084;-78
2022/12/30 10:44:28;;;;;;;6.38;1.42;;;;;;;;;;5005708;28;20045;-78
2022/12/30 10:47:07;;;;;;;7.82;1.73;;;;;;;;;;5003401;28;20179;-78
2022/12/30 10:49:47;;;;;;;7.23;1.63;;;;;;;;;;5025243;28;20037;-76
2022/12/30 10:52:14;;;;;;;7.87;2.33;;;;;;;;;;5005304;28;20129;-77
2022/12/30 10:54:40;;;;;;;17.00;2.23;;;;;;;;;;5024008;28;20095;-78
2022/12/30 10:57:12;;;;;;;9.03;1.80;;;;;;;;;;5011354;28;20037;-77
2022/12/30 10:59:38;;;;;;;;;;;;;;;;;;5009132;28;20041;-77
2022/12/30 11:02:15;;;;;;;8.57;2.20;;;;;;;;;;5024635;28;19913;-76
2022/12/30 11:04:42;;;;;;;8.73;2.30;;;;;;;;;;5005452;28;20060;-75
2022/12/30 11:07:10;;;;;;;7.67;1.60;;;;;;;;;;5003934;28;20444;-78
2022/12/30 11:09:38;;;;;;;9.13;1.70;;;;;;;;;;5004933;28;20037;-78
2022/12/30 11:15:07;;;;;;;8.83;1.97;;;;;;;;;;5022813;28;20044;-76
2022/12/30 11:17:40;;;;;;;6.13;1.20;;;;;;;;;;5004001;28;20091;-77
2022/12/30 11:20:19;;;;;;;6.23;1.50;;;;;;;;;;5010924;28;20133;-78
2022/12/30 11:22:50;;;;;;;8.20;1.90;;;;;;;;;;5003930;28;20040;-77
2022/12/30 11:25:27;;;;;;;8.77;2.00;;;;;;;;;;5009693;28;20370;-76
2022/12/30 11:27:57;;;;;;;6.60;1.30;;;;;;;;;;5006127;28;20454;-78
2022/12/30 11:30:25;;;;;;;6.37;1.40;;;;;;;;;;5004033;28;21742;-77
2022/12/30 11:32:52;;;;;;;12.53;2.03;;;;;;;;;;5012004;28;20048;-76
2022/12/30 11:35:34;;;;;;;9.53;1.83;;;;;;;;;;5026803;28;20036;-77
2022/12/30 11:38:00;;;;;;;4.10;1.10;;;;;;;;;;5023459;28;20128;-78
2022/12/30 11:40:26;;;;;;;7.17;1.53;;;;;;;;;;5003066;28;20125;-77
2022/12/30 11:43:15;;;;;;;8.50;2.03;;;;;;;;;;5008216;28;20095;-76
2022/12/30 11:45:51;;;;;;;4.57;1.90;;;;;;;;;;5008474;28;20037;-77
2022/12/30 11:48:19;;;;;;;9.03;2.23;;;;;;;;;;5024186;28;20788;-76
2022/12/30 11:50:51;;;;;;;10.43;2.17;;;;;;;;;;5019090;28;20044;-79
2022/12/30 11:53:17;;;;;;;7.00;1.90;;;;;;;;;;5023325;28;20029;-77
2022/12/30 11:55:53;;;;;;;10.17;3.77;;;;;;;;;;5008076;28;20088;-76
2022/12/30 11:58:19;;;;;;;10.20;2.80;;;;;;;;;;5005190;28;20029;-76
2022/12/30 12:00:49;;;;;;;6.90;2.67;;;;;;;;;;5007080;28;20021;-78
2022/12/30 12:03:16;;;;;;;8.33;2.03;;;;;;;;;;5005611;28;20433;-75
2022/12/30 12:05:43;;;;;;;6.93;2.00;;;;;;;;;;5006965;28;20026;-77
2022/12/30 12:08:17;;;;;;;5.70;1.80;;;;;;;;;;5005886;28;20029;-78
2022/12/30 12:10:44;;;;;;;6.10;2.10;;;;;;;;;;5004854;28;20038;-78
2022/12/30 12:13:29;;;;;;;9.37;2.43;;;;;;;;;;5008817;28;20478;-77
2022/12/30 12:15:57;;;;;;;6.90;1.97;;;;;;;;;;5003233;28;20037;-77
2022/12/30 12:18:28;;;;;;;12.13;4.27;;;;;;;;;;5022029;28;20037;-78
2022/12/30 12:21:05;;;;;;;7.47;2.60;;;;;;;;;;5013824;28;20044;-77
2022/12/30 12:23:34;;;;;;;6.77;2.17;;;;;;;;;;5008787;28;20029;-77
2022/12/30 12:26:29;;;;;;;10.37;3.47;;;;;;;;;;5010567;28;20096;-75
2022/12/30 12:28:56;;;;;;;7.93;2.17;;;;;;;;;;5000489;28;20083;-78
2022/12/30 12:31:32;;;;;;;4.07;1.63;;;;;;;;;;5020866;28;20041;-77
2022/12/30 12:34:10;;;;;;;8.33;2.67;;;;;;;;;;5002038;28;20034;-76
2022/12/30 12:36:54;;;;;;;7.30;1.87;;;;;;;;;;5003595;28;20057;-77
2022/12/30 12:39:36;;;;;;;7.33;2.00;;;;;;;;;;5003979;28;20034;-78
2022/12/30 12:42:14;;;;;;;8.50;2.80;;;;;;;;;;5006185;28;20137;-78
2022/12/30 12:44:40;;;;;;;6.87;1.77;;;;;;;;;;5022610;28;20097;-77
2022/12/30 12:47:11;;;;;;;10.30;2.60;;;;;;;;;;5020906;28;20041;-77
2022/12/30 12:49:44;;;;;;;5.70;2.63;;;;;;;;;;5021882;28;20033;-76
2022/12/30 12:52:10;;;;;;;8.63;2.23;;;;;;;;;;5021880;28;20193;-76
2022/12/30 12:55:00;;;;;;;11.33;2.20;;;;;;;;;;5022251;28;20065;-77
2022/12/30 12:57:31;;;;;;;8.67;1.67;;;;;;;;;;5021090;28;20029;-75
2022/12/30 13:00:10;;;;;;;6.95;2.10;;;;;;;;;;5021686;28;20037;-78
2022/12/30 13:02:42;;;;;;;7.60;1.67;;;;;;;;;;5001446;28;20032;-78
2022/12/30 13:05:15;;;;;;;8.13;2.15;;;;;;;;;;5002724;28;20105;-77
2022/12/30 13:07:55;;;;;;;7.13;1.80;;;;;;;;;;5002184;28;20025;-77
2022/12/30 13:10:21;;;;;;;6.67;1.97;;;;;;;;;;5020288;28;20032;-77
2022/12/30 13:13:02;;;;;;;11.07;2.57;;;;;;;;;;5001212;28;20051;-75
2022/12/30 13:15:40;;;;;;;7.87;1.63;;;;;;;;;;5019533;28;20034;-77
2022/12/30 13:18:10;;;;;;;6.63;1.57;;;;;;;;;;5021929;28;20040;-77
2022/12/30 13:20:50;;;;;;;7.50;2.30;;;;;;;;;;5021159;28;20018;-77
2022/12/30 13:23:21;;;;;;;6.23;2.00;;;;;;;;;;5004507;28;20037;-77
2022/12/30 13:25:51;;;;;;;8.33;1.93;;;;;;;;;;5023536;28;20408;-76
2022/12/30 13:28:25;;;;;;;10.23;1.37;;;;;;;;;;5008578;28;20044;-75
2022/12/30 13:30:56;;;;;;;10.53;3.30;;;;;;;;;;5004131;28;20036;-75
2022/12/30 13:33:28;;;;;;;8.13;2.90;;;;;;;;;;5009528;28;20033;-77
2022/12/30 13:35:58;;;;;;;10.07;1.60;;;;;;;;;;5003862;28;20029;-76
2022/12/30 13:38:24;;;;;;;8.67;2.00;;;;;;;;;;5009636;28;20240;-77
2022/12/30 13:41:17;;;;;;;9.03;2.17;;;;;;;;;;5009562;28;20829;-77
2022/12/30 13:43:54;;;;;;;10.15;3.15;;;;;;;;;;5008663;28;20044;-76
2022/12/30 13:46:22;;;;;;;8.20;1.80;;;;;;;;;;5004024;28;20033;-77
2022/12/30 13:48:53;;;;;;;12.17;2.00;;;;;;;;;;4999902;28;20033;-76
2022/12/30 13:51:21;;;;;;;12.17;5.20;;;;;;;;;;5007996;28;20025;-76
2022/12/30 13:53:49;;;;;;;9.67;2.03;;;;;;;;;;5019717;28;20111;-76
2022/12/30 13:56:19;;;;;;;8.53;2.60;;;;;;;;;;5003466;28;20044;-77
2022/12/30 13:58:49;;;;;;;9.57;2.80;;;;;;;;;;5001830;28;20546;-76
2022/12/30 14:01:18;;;;;;;14.63;2.67;;;;;;;;;;5006476;28;20116;-77
2022/12/30 14:04:05;;;;;;;11.70;4.10;;;;;;;;;;5021976;28;20033;-75
2022/12/30 14:06:46;;;;;;;14.37;2.20;;;;;;;;;;4997614;28;20127;-76
2022/12/30 14:09:17;;;;;;;10.13;2.43;;;;;;;;;;5004749;28;20038;-77
2022/12/30 14:12:02;;;;;;;10.37;2.17;;;;;;;;;;5002220;28;20120;-77
2022/12/30 14:14:30;;;;;;;8.43;2.30;;;;;;;;;;5009530;28;20566;-76
2022/12/30 14:16:58;;;;;;;11.00;3.03;;;;;;;;;;5023372;28;20454;-77
2022/12/30 14:19:31;;;;;;;7.80;2.40;;;;;;;;;;5002016;28;20124;-78
2022/12/30 14:21:57;;;;;;;10.32;2.28;;;;;;;;;;5003899;28;20060;-78
2022/12/30 14:24:46;;;;;;;12.50;4.60;;;;;;;;;;5019812;28;20064;-77
2022/12/30 14:27:31;;;;;;;9.80;2.47;;;;;;;;;;4996068;28;20048;-78
2022/12/30 14:30:16;;;;;;;9.73;2.20;;;;;;;;;;5022882;28;20104;-76
2022/12/30 14:32:43;;;;;;;9.13;2.03;;;;;;;;;;4991554;28;20041;-77
2022/12/30 14:35:15;;;;;;;5.90;2.47;;;;;;;;;;5024568;28;20033;-75
2022/12/30 14:37:41;;;;;;;7.97;2.67;;;;;;;;;;5021936;28;20025;-77
2022/12/30 14:40:31;;;;;;;8.87;1.70;;;;;;;;;;5005334;28;20117;-77
2022/12/30 14:42:59;;;;;;;6.37;1.67;;;;;;;;;;5023016;28;20025;-75
2022/12/30 14:45:28;;;;;;;7.53;2.47;;;;;;;;;;5007861;28;20029;-78
2022/12/30 14:47:54;;;;;;;7.67;2.13;;;;;;;;;;5008406;28;20026;-75
2022/12/30 14:50:26;;;;;;;10.07;2.33;;;;;;;;;;5022025;28;20044;-78
2022/12/30 14:52:55;;;;;;;6.25;1.73;;;;;;;;;;5001578;28;20049;-76
2022/12/30 14:55:21;;;;;;;9.47;2.47;;;;;;;;;;5001339;28;20030;-76
2022/12/30 14:57:57;;;;;;;8.83;2.60;;;;;;;;;;5019363;28;20030;-76
2022/12/30 15:00:26;;;;;;;9.63;2.17;;;;;;;;;;5012963;28;20029;-78
2022/12/30 15:02:53;;;;;;;11.13;2.50;;;;;;;;;;5006372;28;20107;-77
2022/12/30 15:05:20;;;;;;;8.27;2.30;;;;;;;;;;5010922;28;20111;-78
2022/12/30 15:07:47;;;;;;;7.83;2.90;;;;;;;;;;5010801;28;20033;-77
2022/12/30 15:10:24;;;;;;;14.70;4.23;;;;;;;;;;5009319;28;20034;-76
2022/12/30 15:12:51;;;;;;;8.07;2.87;;;;;;;;;;5003571;28;21522;-78
2022/12/30 15:15:22;;;;;;;9.57;3.83;;;;;;;;;;5006746;28;20041;-76
2022/12/30 15:17:48;;;;;;;9.93;2.70;;;;;;;;;;5007539;28;20049;-77
2022/12/30 15:20:28;;;;;;;10.30;3.40;;;;;;;;;;5005446;28;20029;-76
2022/12/30 15:22:56;;;;;;;7.43;2.23;;;;;;;;;;5003786;28;20044;-78
2022/12/30 15:25:24;;;;;;;10.70;2.73;;;;;;;;;;5013304;28;20133;-77
2022/12/30 15:27:53;;;;;;;13.17;2.97;;;;;;;;;;5010558;28;20144;-78
2022/12/30 15:30:19;;;;;;;14.80;2.47;;;;;;;;;;5022436;28;20041;-76
2022/12/30 15:32:51;;;;;;;7.10;2.50;;;;;;;;;;5005327;28;20091;-78
2022/12/30 15:35:21;;;;;;;7.60;1.67;;;;;;;;;;5002175;28;20029;-77
2022/12/30 15:37:48;;;;;;;6.87;2.17;;;;;;;;;;5023535;28;20469;-76
2022/12/30 15:40:26;;;;;;;9.53;2.00;;;;;;;;;;5021038;28;20044;-76
2022/12/30 15:42:57;;;;;;;5.23;1.77;;;;;;;;;;5023042;28;20034;-75
2022/12/30 15:45:43;;;;;;;6.63;1.43;;;;;;;;;;5005388;28;20030;-76
2022/12/30 15:48:31;;;;;;;8.23;2.23;;;;;;;;;;5006228;28;20030;-77